Aérodrome :
LOGIN :

S'inscrire | Disclaimer

   EN    FR    IT 

 










Légende :    VFR   VFR Marginal   IFR   IFR Intensif   IFR Très Intensif
Visi : 
Plafond : 
>= 8 km
>= 3000ft
5 à 8 km
1000 à 3000 ft
1500m à 5 km
500 à 1000 ft
800 à 1500m
200 à 500 ft
< 800m
< 200 ft
Symboles :   Orages  Brouillard  Fortes neiges  Fortes précipitations  Vent > 20 kt
SIGMETs :   Divers  Orages  Givrage  Turbulence  Onde Orograph.  Cendres Volcan.






- Altitude de l'aérodrome : 36 ft
- Code IATA : LTQ


LFAT - Le Touquet

DERNIER METAR :
  • 130930Z AUTO 30007KT 260V350 9999 FEW033 16/10 Q1015 NOSIG

METARs EXPIRÉS :
  • 130900Z AUTO 31006KT 250V350 CAVOK 16/10 Q1015 NOSIG
  • 130830Z AUTO 32008KT 260V360 9999 FEW019 15/10 Q1015 NOSIG
  • 130800Z AUTO 32008KT 280V360 9999 SCT018 SCT032 15/10 Q1015 NOSIG
  • 130730Z AUTO 33008KT 300V020 9999 FEW019 BKN032 15/11 Q1015 NOSIG
  • 130700Z AUTO 33008KT 9999 BKN030 OVC037 15/11 Q1015 NOSIG
  • 130630Z AUTO 34005KT 9999 BKN030 14/11 Q1014 NOSIG
  • 130600Z AUTO VRB02KT 9000 SCT030 BKN044 13/12 Q1014 TEMPO BKN014
  • 130530Z AUTO 00000KT 9999 FEW031 BKN042 OVC072 13/13 Q1014
  • 130500Z AUTO 00000KT 8000 FEW017/// SCT072/// ///TCU 13/12 Q1014

TAF TAF LFAT
Valide du 13 à 09h jusqu'au 13 à 18h UTC


130800Z 1309/1318 30006KT 9999 SCT025
ATIS : +33 3 21 06 62 84



MET'MAP, la Météo Aéronautique d'un coup d'oeil ! - Copyright ORBIFLY Décembre 2007 - Disclaimer

ORBIFLY MET'MAP TEAM :

Programmation & Développement : Alexandra Zaïnal
Sur une idée originale de : Baudouin d'Aumeries
Soutien technique & logistique : Manuel Goepfert
Assistance : Marc-Olivier Méhu




SOURCES & CREDITS :

   NOAA